WetterOnline ( http://www.wetteronline.de )

Wetter aktuell Erzgebirge/West (in 800m)

Aktuelles Wetter: Carlsfeld (899m)

6-stündlich | Neueste Meldungen
Ortszeit Temperatur Wetter
So, 19.08. 2:00 13.2° C leicht bewölkt
Sa, 18.08. 20:00 18.9° C wolkenlos
Sa, 18.08. 14:00 18.9° C leicht bewölkt
Sa, 18.08. 8:00 13.4° C bewölkt
Sa, 18.08. 2:00 13.8° C bewölkt
Fr, 17.08. 20:00 22.0° C wolkig
Fr, 17.08. 14:00 25.0° C bewölkt
Fr, 17.08. 8:00 18.1° C leicht bewölkt
Ortszeit Temperatur Wetter
So, 19.08. 4:00 12.3° C leicht bewölkt
So, 19.08. 3:50 12.3° C leicht bewölkt
So, 19.08. 3:40 12.6° C fast wolkenlos
So, 19.08. 3:30 12.7° C fast wolkenlos
So, 19.08. 3:20 12.7° C fast wolkenlos
So, 19.08. 3:10 12.9° C leicht bewölkt
So, 19.08. 3:00 13.0° C fast wolkenlos
So, 19.08. 2:30 13.1° C leicht bewölkt
So, 19.08. 2:00 13.2° C leicht bewölkt
So, 19.08. 1:30 13.4° C leicht bewölkt
So, 19.08. 1:00 13.8° C leicht bewölkt
Ortszeit Relative Feuchte Sichtweite
So, 19.08. 2:00 96% 4.7 km
Sa, 18.08. 20:00 73% 20 km
Sa, 18.08. 14:00 76% 17 km
Sa, 18.08. 8:00 98% 4.6 km
Sa, 18.08. 2:00 96% 11 km
Fr, 17.08. 20:00 48% 55 km
Fr, 17.08. 14:00 38% 55 km
Fr, 17.08. 8:00 62% 65 km
Ortszeit Relative Feuchte Sichtweite
So, 19.08. 4:00 95% 5.0 km
So, 19.08. 3:50 95% -
So, 19.08. 3:40 96% -
So, 19.08. 3:30 96% 7 km
So, 19.08. 3:20 96% -
So, 19.08. 3:10 96% -
So, 19.08. 3:00 96% 5.0 km
So, 19.08. 2:30 96% 7 km
So, 19.08. 2:00 96% 4.7 km
So, 19.08. 1:30 95% 3.9 km
So, 19.08. 1:00 95% 5.0 km
Ortszeit Niederschlagsmenge Niederschlagsart
So, 19.08. 2:00 0.0 l/m2 in 6 Std. -
Sa, 18.08. 20:00 0.0 l/m2 in 12 Std. -
Sa, 18.08. 14:00 0.0 l/m2 in 6 Std. -
Sa, 18.08. 8:00 6 l/m2 in 12 Std. -
Sa, 18.08. 2:00 6 l/m2 in 6 Std. Regen
Fr, 17.08. 20:00 0.0 l/m2 in 12 Std. -
Fr, 17.08. 14:00 0.0 l/m2 in 6 Std. -
Fr, 17.08. 8:00 0.0 l/m2 in 12 Std. -
Ortszeit Niederschlagsmenge Niederschlagsart
So, 19.08. 4:00 0.0 l/m2 in 1 Std. -
So, 19.08. 3:50 keine Meldung -
So, 19.08. 3:40 keine Meldung -
So, 19.08. 3:30 0.0 l/m2 in 1 Std. -
So, 19.08. 3:20 keine Meldung -
So, 19.08. 3:10 keine Meldung -
So, 19.08. 3:00 0.0 l/m2 in 1 Std. -
So, 19.08. 2:30 0.0 l/m2 in 1 Std. -
So, 19.08. 2:00 0.0 l/m2 in 1 Std. -
So, 19.08. 1:30 0.0 l/m2 in 1 Std. -
So, 19.08. 1:00 0.0 l/m2 in 1 Std. -
Ortszeit Stärke Spitze Richtung
km/h Bft. km/h Grad Sektor
So, 19.08. 2:00 2 1 7 170° S
Sa, 18.08. 20:00 4 1 22 30° NO
Sa, 18.08. 14:00 11 2 22 70° O
Sa, 18.08. 8:00 4 1 18 10° N
Sa, 18.08. 2:00 4 1 29 340° N
Fr, 17.08. 20:00 2 1 17 150° SO
Fr, 17.08. 14:00 6 1 19 300° NW
Fr, 17.08. 8:00 6 1 19 230° SW
Ortszeit Stärke Spitze Richtung
km/h Bft. km/h Grad Sektor
So, 19.08. 4:00 0 0 4 - -
So, 19.08. 3:50 0 0 - 190° S
So, 19.08. 3:40 0 0 - 340° N
So, 19.08. 3:30 2 1 6 190° S
So, 19.08. 3:20 2 1 - 190° S
So, 19.08. 3:10 4 1 - 170° S
So, 19.08. 3:00 4 1 7 170° S
So, 19.08. 2:30 4 1 7 180° S
So, 19.08. 2:00 2 1 4 170° S
So, 19.08. 1:30 4 1 4 190° S
So, 19.08. 1:00 4 1 7 190° S
Ortszeit Untergrenze Bedeckung Gattung
total tief tief mittel hoch
So, 19.08. 2:00 9000 m 6/8 0/8 - - -
Sa, 18.08. 20:00 - 0/8 0/8 - - -
Sa, 18.08. 14:00 1260 m 2/8 1/8 - - -
Sa, 18.08. 8:00 30 m 8/8 7/8 - - -
Sa, 18.08. 2:00 2100 m 7/8 7/8 - - -
Fr, 17.08. 20:00 2400 m 6/8 6/8 - - -
Fr, 17.08. 14:00 1800 m 7/8 7/8 - - -
Fr, 17.08. 8:00 9000 m 5/8 0/8 - - -
Ortszeit Bedeckungsgrad in Achtel und Wolkenuntergrenze
So, 19.08. 4:00 2(9000m) 3(10500m)
So, 19.08. 3:50 2(9000m) 3(10500m)
So, 19.08. 3:40 1(10500m)
So, 19.08. 3:30 1(9000m) 3(10500m)
So, 19.08. 3:20 1(9000m) 2(9000m)
So, 19.08. 3:10 1(9000m) 3(9000m)
So, 19.08. 3:00 2(9000m)
So, 19.08. 2:30 5(9000m) 6(9000m)
So, 19.08. 2:00 6(9000m)
So, 19.08. 1:30 4(9000m)
So, 19.08. 1:00 5(10500m)
Ortszeit Stationsdruck (hPa) Tendenz (hPa in 3 Std.)
So, 19.08. 2:00 921 - 0,2
Sa, 18.08. 20:00 920 + 0,1
Sa, 18.08. 14:00 920 + 0,3
Sa, 18.08. 8:00 919 + 1,1
Sa, 18.08. 2:00 918 + 0,7
Fr, 17.08. 20:00 915 0,0
Fr, 17.08. 14:00 915 - 0,1
Fr, 17.08. 8:00 915 + 0,4
Ortszeit Stationsdruck (hPa) Tendenz (hPa in 3 Std.)
So, 19.08. 4:00 920 - 0,2
So, 19.08. 3:50 920 keine Meldung
So, 19.08. 3:40 920 keine Meldung
So, 19.08. 3:30 920 - 0,2
So, 19.08. 3:20 920 keine Meldung
So, 19.08. 3:10 920 keine Meldung
So, 19.08. 3:00 920 - 0,5
So, 19.08. 2:30 920 - 0,3
So, 19.08. 2:00 921 - 0,2
So, 19.08. 1:30 921 - 0,2
So, 19.08. 1:00 921 0,0
Ortszeit Schneehöhe (cm)
So, 19.08. 2:00 -
Sa, 18.08. 20:00 -
Sa, 18.08. 14:00 -
Sa, 18.08. 8:00 -
Sa, 18.08. 2:00 -
Fr, 17.08. 20:00 -
Fr, 17.08. 14:00 -
Fr, 17.08. 8:00 -
Ortszeit Schneehöhe (cm)
So, 19.08. 4:00 -
So, 19.08. 3:50 -
So, 19.08. 3:40 -
So, 19.08. 3:30 -
So, 19.08. 3:20 -
So, 19.08. 3:10 -
So, 19.08. 3:00 -
So, 19.08. 2:30 -
So, 19.08. 2:00 -
So, 19.08. 1:30 -
So, 19.08. 1:00 -
Link zu dieser Seite / Seite empfehlen

Das Wetter in ...